sensor_id;sensor_type;location;lat;lon;timestamp;pressure;altitude;pressure_sealevel;temperature;humidity
12073;BME280;6098;49.004;8.372;2023-12-20T00:05:55;100531.03;;;6.64;100.00
12073;BME280;6098;49.004;8.372;2023-12-20T00:20:45;100525.41;;;6.59;100.00
12073;BME280;6098;49.004;8.372;2023-12-20T00:35:37;100526.44;;;6.52;100.00
12073;BME280;6098;49.004;8.372;2023-12-20T00:50:27;100538.25;;;6.55;100.00
12073;BME280;6098;49.004;8.372;2023-12-20T01:05:20;100548.86;;;6.50;100.00
12073;BME280;6098;49.004;8.372;2023-12-20T01:20:13;100532.66;;;6.49;100.00
12073;BME280;6098;49.004;8.372;2023-12-20T01:35:04;100514.16;;;6.52;100.00
12073;BME280;6098;49.004;8.372;2023-12-20T01:49:56;100509.36;;;6.52;100.00
12073;BME280;6098;49.004;8.372;2023-12-20T02:04:47;100503.62;;;6.52;100.00
12073;BME280;6098;49.004;8.372;2023-12-20T02:19:39;100511.00;;;6.56;100.00
12073;BME280;6098;49.004;8.372;2023-12-20T02:34:31;100506.97;;;6.59;100.00
12073;BME280;6098;49.004;8.372;2023-12-20T02:49:22;100530.16;;;6.64;100.00
12073;BME280;6098;49.004;8.372;2023-12-20T03:04:12;100540.22;;;6.65;100.00
12073;BME280;6098;49.004;8.372;2023-12-20T03:19:03;100540.22;;;6.66;100.00
12073;BME280;6098;49.004;8.372;2023-12-20T03:33:56;100538.02;;;6.66;100.00
12073;BME280;6098;49.004;8.372;2023-12-20T03:48:47;100509.01;;;6.67;100.00
12073;BME280;6098;49.004;8.372;2023-12-20T04:03:40;100529.96;;;6.73;100.00
12073;BME280;6098;49.004;8.372;2023-12-20T04:18:33;100548.80;;;6.75;100.00
12073;BME280;6098;49.004;8.372;2023-12-20T04:33:25;100555.78;;;6.78;100.00
12073;BME280;6098;49.004;8.372;2023-12-20T04:48:17;100569.32;;;6.81;100.00
12073;BME280;6098;49.004;8.372;2023-12-20T05:03:08;100583.73;;;6.84;100.00
12073;BME280;6098;49.004;8.372;2023-12-20T05:18:02;100585.05;;;6.84;100.00
12073;BME280;6098;49.004;8.372;2023-12-20T05:32:54;100603.82;;;6.90;100.00
12073;BME280;6098;49.004;8.372;2023-12-20T05:47:45;100612.12;;;6.93;100.00
12073;BME280;6098;49.004;8.372;2023-12-20T06:02:36;100638.80;;;6.98;100.00
12073;BME280;6098;49.004;8.372;2023-12-20T06:17:29;100666.36;;;7.03;100.00
12073;BME280;6098;49.004;8.372;2023-12-20T06:32:21;100704.14;;;7.04;100.00
12073;BME280;6098;49.004;8.372;2023-12-20T06:47:13;100701.91;;;7.06;100.00
12073;BME280;6098;49.004;8.372;2023-12-20T07:02:05;100734.99;;;6.98;100.00
12073;BME280;6098;49.004;8.372;2023-12-20T07:16:57;100748.24;;;6.95;100.00
12073;BME280;6098;49.004;8.372;2023-12-20T07:31:49;100761.86;;;6.94;100.00
12073;BME280;6098;49.004;8.372;2023-12-20T07:46:40;100774.73;;;6.86;100.00
12073;BME280;6098;49.004;8.372;2023-12-20T08:01:31;100788.09;;;6.75;100.00
12073;BME280;6098;49.004;8.372;2023-12-20T08:16:22;100800.58;;;6.63;100.00
12073;BME280;6098;49.004;8.372;2023-12-20T08:31:17;100807.16;;;6.64;100.00
12073;BME280;6098;49.004;8.372;2023-12-20T08:46:10;100826.48;;;6.64;100.00
12073;BME280;6098;49.004;8.372;2023-12-20T09:01:01;100822.72;;;6.80;98.17
12073;BME280;6098;49.004;8.372;2023-12-20T09:15:54;100814.09;;;6.97;97.92
12073;BME280;6098;49.004;8.372;2023-12-20T09:30:47;100800.34;;;7.03;93.78
12073;BME280;6098;49.004;8.372;2023-12-20T09:45:38;100817.78;;;7.11;92.37
12073;BME280;6098;49.004;8.372;2023-12-20T10:00:30;100829.59;;;7.37;89.00
12073;BME280;6098;49.004;8.372;2023-12-20T10:15:23;100819.31;;;7.46;86.80
12073;BME280;6098;49.004;8.372;2023-12-20T10:30:14;100796.30;;;7.54;86.20
12073;BME280;6098;49.004;8.372;2023-12-20T10:45:05;100793.66;;;7.54;85.13
12073;BME280;6098;49.004;8.372;2023-12-20T10:59:56;100764.09;;;7.60;85.23
12073;BME280;6098;49.004;8.372;2023-12-20T11:14:50;100758.30;;;7.84;81.55
12073;BME280;6098;49.004;8.372;2023-12-20T11:29:40;100757.01;;;7.83;80.96
12073;BME280;6098;49.004;8.372;2023-12-20T11:44:31;100751.12;;;7.90;80.58
12073;BME280;6098;49.004;8.372;2023-12-20T11:59:21;100750.61;;;7.93;84.54
12073;BME280;6098;49.004;8.372;2023-12-20T12:14:13;100734.33;;;7.93;82.64
12073;BME280;6098;49.004;8.372;2023-12-20T12:29:07;100735.64;;;7.94;82.45
12073;BME280;6098;49.004;8.372;2023-12-20T12:43:55;100727.42;;;7.88;81.05
12073;BME280;6098;49.004;8.372;2023-12-20T12:58:46;100719.50;;;7.88;80.49
12073;BME280;6098;49.004;8.372;2023-12-20T13:13:39;100724.38;;;7.85;79.72
12073;BME280;6098;49.004;8.372;2023-12-20T13:28:30;100720.11;;;7.81;80.42
12073;BME280;6098;49.004;8.372;2023-12-20T13:43:22;100698.64;;;7.76;81.65
12073;BME280;6098;49.004;8.372;2023-12-20T13:58:13;100676.64;;;7.78;81.24
12073;BME280;6098;49.004;8.372;2023-12-20T14:13:07;100682.89;;;7.73;81.35
12073;BME280;6098;49.004;8.372;2023-12-20T14:28:00;100659.59;;;7.73;82.50
12073;BME280;6098;49.004;8.372;2023-12-20T14:42:51;100667.58;;;7.70;83.00
12073;BME280;6098;49.004;8.372;2023-12-20T14:57:43;100657.12;;;7.66;83.64
12073;BME280;6098;49.004;8.372;2023-12-20T15:12:33;100655.93;;;7.59;84.87
12073;BME280;6098;49.004;8.372;2023-12-20T15:27:25;100653.14;;;7.47;85.23
12073;BME280;6098;49.004;8.372;2023-12-20T15:42:16;100621.53;;;7.46;84.21
12073;BME280;6098;49.004;8.372;2023-12-20T15:57:08;100632.12;;;7.43;83.28
12073;BME280;6098;49.004;8.372;2023-12-20T16:11:59;100630.85;;;7.40;83.00
12073;BME280;6098;49.004;8.372;2023-12-20T16:26:51;100635.41;;;7.33;85.50
12073;BME280;6098;49.004;8.372;2023-12-20T16:41:41;100620.51;;;7.32;86.40
12073;BME280;6098;49.004;8.372;2023-12-20T16:56:32;100623.59;;;7.31;87.07
12073;BME280;6098;49.004;8.372;2023-12-20T17:11:23;100613.69;;;7.23;87.12
12073;BME280;6098;49.004;8.372;2023-12-20T17:26:13;100613.60;;;7.27;86.22
12073;BME280;6098;49.004;8.372;2023-12-20T17:41:04;100585.36;;;7.31;85.90
12073;BME280;6098;49.004;8.372;2023-12-20T17:55:56;100602.45;;;7.34;84.15
12073;BME280;6098;49.004;8.372;2023-12-20T18:10:47;100611.95;;;7.40;82.34
12073;BME280;6098;49.004;8.372;2023-12-20T18:25:39;100589.97;;;7.41;82.53
12073;BME280;6098;49.004;8.372;2023-12-20T18:40:33;100591.38;;;7.38;83.91
12073;BME280;6098;49.004;8.372;2023-12-20T18:55:23;100587.86;;;7.38;83.77
12073;BME280;6098;49.004;8.372;2023-12-20T19:10:13;100572.13;;;7.33;84.74
12073;BME280;6098;49.004;8.372;2023-12-20T19:25:05;100545.98;;;7.23;86.71
12073;BME280;6098;49.004;8.372;2023-12-20T19:39:56;100532.09;;;7.17;87.97
12073;BME280;6098;49.004;8.372;2023-12-20T19:54:48;100528.17;;;7.14;88.57
12073;BME280;6098;49.004;8.372;2023-12-20T20:09:37;100541.41;;;7.12;87.85
12073;BME280;6098;49.004;8.372;2023-12-20T20:24:30;100500.55;;;7.13;86.61
12073;BME280;6098;49.004;8.372;2023-12-20T20:39:21;100499.75;;;7.09;86.87
12073;BME280;6098;49.004;8.372;2023-12-20T20:54:12;100491.57;;;7.02;88.30
12073;BME280;6098;49.004;8.372;2023-12-20T21:09:04;100477.52;;;7.02;87.82
12073;BME280;6098;49.004;8.372;2023-12-20T21:23:54;100425.30;;;6.99;87.26
12073;BME280;6098;49.004;8.372;2023-12-20T21:38:46;100405.92;;;7.02;87.36
12073;BME280;6098;49.004;8.372;2023-12-20T21:53:38;100388.27;;;7.05;87.38
12073;BME280;6098;49.004;8.372;2023-12-20T22:08:28;100367.61;;;7.06;89.13
12073;BME280;6098;49.004;8.372;2023-12-20T22:23:19;100351.38;;;7.05;89.03
12073;BME280;6098;49.004;8.372;2023-12-20T22:38:10;100335.80;;;7.13;88.07
12073;BME280;6098;49.004;8.372;2023-12-20T22:53:03;100303.09;;;7.20;87.63
12073;BME280;6098;49.004;8.372;2023-12-20T23:07:57;100300.41;;;7.21;87.92
12073;BME280;6098;49.004;8.372;2023-12-20T23:22:47;100281.08;;;7.22;86.82
12073;BME280;6098;49.004;8.372;2023-12-20T23:37:37;100276.83;;;7.17;89.37
12073;BME280;6098;49.004;8.372;2023-12-20T23:52:28;100255.06;;;7.10;90.67
